Time;durP1;ratioP1;P1;durP2;ratioP2;P2;SDS_P1;SDS_P2;PMS_P1;PMS_P2;Temp;Humidity;BMP_temperature;BMP_pressure;BME280_temperature;BME280_humidity;BME280_pressure;Samples;Min_cycle;Max_cycle;Signal;HPM_P1;HPM_P2
2023/03/15 00:00:11;;;;;;;6.53;1.70;;;;;;;3.55;100.00;101124.44;5191046;28;20713;-75
2023/03/15 00:02:42;;;;;;;2.85;1.02;;;;;;;3.61;100.00;101132.06;5193405;28;20092;-75
2023/03/15 00:05:13;;;;;;;4.70;1.00;;;;;;;3.69;100.00;101143.09;5193879;28;20022;-73
2023/03/15 00:07:45;;;;;;;5.10;1.20;;;;;;;3.68;100.00;101143.13;5195588;28;20105;-75
2023/03/15 00:10:16;;;;;;;4.20;0.93;;;;;;;3.56;100.00;101139.94;5194739;28;20062;-75
2023/03/15 00:12:48;;;;;;;5.00;1.67;;;;;;;3.70;100.00;101130.97;5195270;28;20018;-75
2023/03/15 00:15:19;;;;;;;4.07;1.10;;;;;;;3.60;100.00;101115.69;5195582;28;20361;-76
2023/03/15 00:17:50;;;;;;;2.40;1.00;;;;;;;3.61;100.00;101122.53;5195325;28;20058;-75
2023/03/15 00:20:22;;;;;;;3.70;1.10;;;;;;;3.70;100.00;101125.81;5195101;28;20026;-75
2023/03/15 00:22:53;;;;;;;4.00;1.27;;;;;;;3.78;100.00;101141.13;5194998;28;20521;-75
2023/03/15 00:25:25;;;;;;;4.73;1.53;;;;;;;3.68;100.00;101132.75;5194877;28;20050;-75
2023/03/15 00:27:56;;;;;;;5.27;1.10;;;;;;;3.76;100.00;101141.19;5194047;28;20038;-75
2023/03/15 00:30:27;;;;;;;3.70;1.40;;;;;;;3.68;100.00;101141.38;5194362;28;20367;-75
2023/03/15 00:32:59;;;;;;;4.90;1.33;;;;;;;3.70;100.00;101147.34;5176057;28;20433;-75
2023/03/15 00:35:32;;;;;;;2.57;1.10;;;;;;;3.76;100.00;101151.53;5195099;28;20652;-75
2023/03/15 00:38:03;;;;;;;3.47;1.30;;;;;;;3.70;100.00;101144.78;5194968;28;20032;-76
2023/03/15 00:40:36;;;;;;;4.63;1.10;;;;;;;3.69;100.00;101150.00;5181809;28;20030;-76
2023/03/15 00:43:08;;;;;;;4.57;1.20;;;;;;;3.65;100.00;101149.22;5177336;28;20027;-76
2023/03/15 00:45:39;;;;;;;4.93;1.23;;;;;;;3.57;100.00;101136.47;5177752;28;20057;-76
2023/03/15 00:48:10;;;;;;;4.50;1.37;;;;;;;3.61;100.00;101151.03;5194027;28;20041;-75
2023/03/15 00:50:41;;;;;;;5.73;1.90;;;;;;;3.50;100.00;101134.94;5181695;28;20023;-77
2023/03/15 00:53:13;;;;;;;3.17;1.30;;;;;;;3.62;100.00;101144.13;5194842;28;20107;-76
2023/03/15 00:55:44;;;;;;;4.30;1.77;;;;;;;3.47;100.00;101135.84;5194741;28;20117;-76
2023/03/15 00:58:15;;;;;;;4.30;1.30;;;;;;;3.59;100.00;101145.06;5195269;28;20448;-76
2023/03/15 01:00:47;;;;;;;2.60;1.30;;;;;;;3.63;100.00;101145.84;5180353;28;20081;-76
2023/03/15 01:03:18;;;;;;;8.23;2.03;;;;;;;3.68;100.00;101149.16;5194044;28;20459;-75
2023/03/15 01:05:49;;;;;;;5.20;1.40;;;;;;;3.46;100.00;101134.16;5194735;28;20033;-75
2023/03/15 01:08:23;;;;;;;7.00;1.27;;;;;;;3.49;100.00;101122.88;5177087;28;20014;-75
2023/03/15 01:10:54;;;;;;;4.20;1.80;;;;;;;3.62;100.00;101147.56;5187412;28;20072;-75
2023/03/15 01:13:25;;;;;;;9.77;2.57;;;;;;;3.60;100.00;101151.94;5193189;28;20026;-75
2023/03/15 01:15:57;;;;;;;5.90;2.27;;;;;;;3.51;100.00;101146.97;5194885;28;20025;-76
2023/03/15 01:18:28;;;;;;;7.10;2.53;;;;;;;3.48;100.00;101147.06;5193297;28;20105;-76
2023/03/15 01:21:00;;;;;;;8.27;3.30;;;;;;;3.43;100.00;101134.25;5194143;28;20097;-75
2023/03/15 01:23:32;;;;;;;8.00;3.27;;;;;;;3.51;100.00;101147.84;5194430;28;20132;-76
2023/03/15 01:26:06;;;;;;;7.20;3.87;;;;;;;3.39;100.00;101138.63;5194423;28;20109;-76
2023/03/15 01:28:38;;;;;;;13.57;5.07;;;;;;;3.56;100.00;101165.00;5194126;28;20030;-76
2023/03/15 01:31:21;;;;;;;7.83;4.47;;;;;;;3.44;100.00;101158.41;5193609;28;20033;-76
2023/03/15 01:33:53;;;;;;;9.80;5.27;;;;;;;3.35;100.00;101157.72;5194533;28;20022;-75
2023/03/15 01:36:25;;;;;;;7.60;5.70;;;;;;;3.30;100.00;101169.09;5194106;28;20022;-76
2023/03/15 01:38:56;;;;;;;7.83;5.93;;;;;;;3.34;100.00;101176.75;5180298;28;20076;-75
2023/03/15 01:41:27;;;;;;;12.10;6.20;;;;;;;3.29;100.00;101167.38;5194007;28;20030;-75
2023/03/15 01:43:59;;;;;;;9.30;6.53;;;;;;;3.22;100.00;101164.09;5194186;28;20014;-76
2023/03/15 01:46:33;;;;;;;9.07;7.33;;;;;;;3.32;100.00;101182.81;5193133;28;20550;-76
2023/03/15 01:49:07;;;;;;;9.57;7.63;;;;;;;3.28;100.00;101178.63;5192075;28;20359;-76
2023/03/15 01:51:48;;;;;;;10.38;8.38;;;;;;;3.21;100.00;101175.34;5189363;28;20034;-76
2023/03/15 01:54:33;;;;;;;11.20;8.17;;;;;;;3.30;100.00;101172.50;5193729;28;20034;-76
2023/03/15 01:57:11;;;;;;;12.37;10.83;;;;;;;3.31;100.00;101186.31;5193042;28;20034;-76
2023/03/15 01:59:50;;;;;;;11.07;8.37;;;;;;;3.31;100.00;101189.78;5194141;28;20463;-77
2023/03/15 02:02:23;;;;;;;11.13;10.00;;;;;;;3.19;100.00;101197.81;5192556;28;20053;-77
2023/03/15 02:05:10;;;;;;;10.60;9.50;;;;;;;3.36;100.00;101185.34;5192875;28;20387;-77
2023/03/15 02:07:48;;;;;;;15.40;9.67;;;;;;;3.32;100.00;101198.38;5189732;28;20053;-77
2023/03/15 02:10:29;;;;;;;10.73;9.63;;;;;;;3.30;100.00;101193.22;5193483;28;20038;-77
2023/03/15 02:13:01;;;;;;;13.07;10.77;;;;;;;3.36;100.00;101206.03;5193314;28;20105;-76
2023/03/15 02:15:32;;;;;;;12.80;11.33;;;;;;;3.31;100.00;101213.06;5193389;28;20015;-76
2023/03/15 02:18:04;;;;;;;12.47;11.13;;;;;;;3.16;100.00;101203.91;5178531;28;20022;-77
2023/03/15 02:20:59;;;;;;;12.63;10.30;;;;;;;3.30;100.00;101220.88;5175907;28;20037;-77
2023/03/15 02:23:30;;;;;;;12.43;9.73;;;;;;;3.19;100.00;101221.13;5180552;28;20022;-77
2023/03/15 02:26:14;;;;;;;12.13;10.10;;;;;;;3.21;100.00;101217.59;5174853;28;20025;-77
2023/03/15 02:28:46;;;;;;;11.47;10.23;;;;;;;3.14;100.00;101214.28;5184175;28;20027;-77
2023/03/15 02:31:18;;;;;;;11.90;10.60;;;;;;;3.19;100.00;101224.56;5178097;28;20380;-77
2023/03/15 02:33:52;;;;;;;14.17;12.37;;;;;;;3.26;100.00;101220.09;5193507;28;20037;-77
2023/03/15 02:36:26;;;;;;;11.93;10.77;;;;;;;3.26;100.00;101230.44;5192595;28;20041;-77
2023/03/15 02:38:58;;;;;;;;;;;;;;;3.35;100.00;101235.41;5193387;28;20695;-77
2023/03/15 02:41:33;;;;;;;12.13;10.77;;;;;;;3.26;100.00;101226.09;5192993;28;20008;-77
2023/03/15 02:44:13;;;;;;;11.93;10.43;;;;;;;3.24;100.00;101227.03;5192794;28;20457;-77
2023/03/15 02:46:48;;;;;;;11.73;9.47;;;;;;;2.95;100.00;101177.63;5191887;28;20398;-77
2023/03/15 02:49:24;;;;;;;11.27;10.17;;;;;;;3.32;100.00;101234.59;5192475;28;20033;-77
2023/03/15 02:51:55;;;;;;;10.27;8.87;;;;;;;3.19;100.00;101231.47;5192799;28;20022;-77
2023/03/15 02:54:27;;;;;;;11.27;8.43;;;;;;;3.10;100.00;101237.69;5192580;28;20053;-77
2023/03/15 02:57:00;;;;;;;11.53;9.53;;;;;;;3.19;100.00;101247.00;5192333;28;20061;-77
2023/03/15 02:59:31;;;;;;;10.17;9.17;;;;;;;3.20;100.00;101248.69;5193435;28;20269;-77
2023/03/15 03:02:03;;;;;;;10.43;9.07;;;;;;;3.13;100.00;101241.06;5191674;28;20074;-77
2023/03/15 03:04:34;;;;;;;8.97;8.07;;;;;;;3.09;100.00;101249.78;5175468;28;20030;-77
2023/03/15 03:07:06;;;;;;;10.30;9.17;;;;;;;2.94;100.00;101237.16;5185249;28;20042;-77
2023/03/15 03:09:38;;;;;;;10.37;9.33;;;;;;;3.04;100.00;101256.78;5192704;28;20030;-76
2023/03/15 03:12:09;;;;;;;10.17;9.03;;;;;;;3.06;100.00;101267.97;5192833;28;20447;-76
2023/03/15 03:14:42;;;;;;;10.97;9.77;;;;;;;2.94;100.00;101258.72;5185678;28;20030;-76
2023/03/15 03:17:13;;;;;;;10.43;9.07;;;;;;;3.02;100.00;101284.44;5185247;28;20033;-76
2023/03/15 03:19:44;;;;;;;10.70;9.60;;;;;;;3.01;100.00;101277.56;5175553;28;20027;-77
2023/03/15 03:22:16;;;;;;;10.43;9.37;;;;;;;3.05;100.00;101289.56;5192444;28;20034;-76
2023/03/15 03:24:47;;;;;;;11.73;10.53;;;;;;;2.99;100.00;101293.13;5175006;28;20052;-76
2023/03/15 03:27:20;;;;;;;10.27;9.17;;;;;;;2.94;100.00;101299.28;5192532;28;20042;-76
2023/03/15 03:29:51;;;;;;;11.80;9.87;;;;;;;2.80;100.00;101300.41;5175614;28;20686;-75
2023/03/15 03:32:22;;;;;;;11.03;10.00;;;;;;;3.00;100.00;101304.34;5178408;28;20031;-76
2023/03/15 03:34:54;;;;;;;12.03;9.37;;;;;;;2.87;100.00;101290.78;5191346;28;20049;-76
2023/03/15 03:37:26;;;;;;;10.30;9.23;;;;;;;2.96;100.00;101305.28;5194384;28;20073;-76
2023/03/15 03:39:57;;;;;;;11.23;10.03;;;;;;;2.90;100.00;101306.25;5182430;28;20452;-76
2023/03/15 03:42:29;;;;;;;10.80;9.67;;;;;;;2.76;100.00;101293.56;5184661;28;20118;-76
2023/03/15 03:45:00;;;;;;;10.47;9.50;;;;;;;2.80;100.00;101320.25;5176442;28;20022;-76
2023/03/15 03:47:32;;;;;;;10.77;9.67;;;;;;;2.78;100.00;101322.88;5195819;28;20061;-76
2023/03/15 03:50:04;;;;;;;12.27;10.97;;;;;;;2.81;100.00;101327.13;5195127;28;20050;-77
2023/03/15 03:52:36;;;;;;;11.30;10.10;;;;;;;2.80;100.00;101320.25;5196205;28;20061;-76
2023/03/15 03:55:07;;;;;;;11.43;10.17;;;;;;;2.80;100.00;101321.09;5195024;28;20030;-76
2023/03/15 03:57:40;;;;;;;12.67;11.33;;;;;;;2.83;100.00;101326.22;5189630;28;20376;-75
2023/03/15 04:00:13;;;;;;;11.57;10.30;;;;;;;2.71;100.00;101318.69;5189361;28;20046;-76
2023/03/15 04:02:44;;;;;;;12.57;10.20;;;;;;;2.77;100.00;101331.53;5170645;28;20027;-77
2023/03/15 04:05:15;;;;;;;12.40;11.10;;;;;;;2.71;100.00;101342.81;5171750;28;20030;-75
2023/03/15 04:07:47;;;;;;;10.63;9.53;;;;;;;2.63;100.00;101335.22;5195346;28;20026;-76
2023/03/15 04:10:18;;;;;;;11.43;10.33;;;;;;;2.59;100.00;101349.06;5182922;28;20422;-76
2023/03/15 04:12:49;;;;;;;11.67;10.57;;;;;;;2.59;100.00;101351.66;5195071;28;20037;-76
2023/03/15 04:15:22;;;;;;;10.40;9.40;;;;;;;2.53;100.00;101344.88;5195490;28;20173;-76
2023/03/15 04:17:57;;;;;;;11.50;10.37;;;;;;;2.59;100.00;101362.00;5194307;28;20129;-76
2023/03/15 04:20:28;;;;;;;11.43;10.33;;;;;;;2.59;100.00;101355.97;5195730;28;20033;-76
2023/03/15 04:23:00;;;;;;;12.37;10.83;;;;;;;2.56;100.00;101374.13;5194964;28;20026;-75
2023/03/15 04:25:31;;;;;;;12.77;10.87;;;;;;;2.52;100.00;101374.19;5186771;28;20433;-76
2023/03/15 04:28:03;;;;;;;12.97;10.90;;;;;;;2.43;100.00;101374.34;5190372;28;20035;-76
2023/03/15 04:30:34;;;;;;;12.20;10.13;;;;;;;2.37;100.00;101356.38;5186914;28;20035;-76
2023/03/15 04:33:05;;;;;;;12.17;10.93;;;;;;;2.40;100.00;101371.81;5189644;28;20084;-76
2023/03/15 04:35:41;;;;;;;13.00;10.70;;;;;;;2.39;100.00;101368.38;5168742;28;20022;-76
2023/03/15 04:38:12;;;;;;;12.47;11.27;;;;;;;2.36;100.00;101383.94;5173272;28;20081;-76
2023/03/15 04:40:44;;;;;;;11.70;10.50;;;;;;;2.40;100.00;101384.75;5169080;28;20459;-76
2023/03/15 04:43:15;;;;;;;11.43;9.97;;;;;;;2.27;100.00;101378.94;5194390;28;20031;-76
2023/03/15 04:45:47;;;;;;;12.50;11.30;;;;;;;2.31;100.00;101401.25;5194429;28;20109;-76
2023/03/15 04:48:18;;;;;;;12.63;11.33;;;;;;;2.07;100.00;101372.34;5194314;28;20026;-76
2023/03/15 04:50:50;;;;;;;12.23;10.97;;;;;;;2.28;100.00;101406.47;5195115;28;20026;-76
2023/03/15 04:53:21;;;;;;;13.00;11.70;;;;;;;2.24;100.00;101399.63;5194420;28;20030;-75
2023/03/15 04:55:53;;;;;;;12.23;11.03;;;;;;;2.23;100.00;101409.16;5194776;28;20023;-76
2023/03/15 04:58:24;;;;;;;16.13;10.80;;;;;;;2.17;100.00;101399.75;5194677;28;20030;-76
2023/03/15 05:00:55;;;;;;;13.07;10.13;;;;;;;2.17;100.00;101397.16;5180499;28;20550;-75
2023/03/15 05:03:27;;;;;;;12.07;10.33;;;;;;;2.23;100.00;101401.41;5177271;28;20109;-76
2023/03/15 05:06:06;;;;;;;12.33;10.80;;;;;;;2.21;100.00;101415.19;5194366;28;20022;-75
2023/03/15 05:08:38;;;;;;;11.33;10.23;;;;;;;2.20;100.00;101414.34;5195126;28;20033;-76
2023/03/15 05:11:09;;;;;;;11.57;10.37;;;;;;;2.11;100.00;101410.16;5193815;28;20395;-76
2023/03/15 05:13:41;;;;;;;11.00;9.90;;;;;;;2.18;100.00;101419.53;5177094;28;20033;-76
2023/03/15 05:16:12;;;;;;;10.47;9.27;;;;;;;2.18;100.00;101422.13;5192879;28;20045;-77
2023/03/15 05:18:44;;;;;;;11.23;10.10;;;;;;;2.18;100.00;101429.88;5194786;28;20045;-76
2023/03/15 05:21:15;;;;;;;11.17;9.37;;;;;;;2.11;100.00;101428.25;5194280;28;20539;-77
2023/03/15 05:23:46;;;;;;;12.77;10.10;;;;;;;2.15;100.00;101431.66;5194374;28;20108;-77
2023/03/15 05:26:18;;;;;;;11.57;9.10;;;;;;;2.09;100.00;101437.78;5194318;28;20033;-75
2023/03/15 05:28:51;;;;;;;11.83;9.47;;;;;;;2.10;100.00;101434.31;5194084;28;20045;-76
2023/03/15 05:31:22;;;;;;;11.07;9.70;;;;;;;2.07;100.00;101431.78;5192147;28;20053;-76
2023/03/15 05:33:53;;;;;;;12.80;10.23;;;;;;;2.09;100.00;101435.19;5193852;28;20065;-76
2023/03/15 05:36:25;;;;;;;11.57;9.43;;;;;;;2.06;100.00;101435.22;5193306;28;20034;-77
2023/03/15 05:38:56;;;;;;;11.53;10.17;;;;;;;2.13;100.00;101444.59;5194367;28;20076;-76
2023/03/15 05:41:28;;;;;;;10.57;9.47;;;;;;;2.06;100.00;101445.56;5193612;28;20125;-76
2023/03/15 05:43:59;;;;;;;10.77;9.63;;;;;;;2.04;100.00;101439.59;5194009;28;20026;-76
2023/03/15 05:46:30;;;;;;;11.63;9.77;;;;;;;2.13;100.00;101454.94;5193016;28;20022;-76
2023/03/15 05:49:03;;;;;;;12.87;9.80;;;;;;;2.05;100.00;101454.19;5193504;28;20074;-76
2023/03/15 05:51:34;;;;;;;10.30;8.77;;;;;;;2.01;100.00;101450.81;5193651;28;20076;-76
2023/03/15 05:54:06;;;;;;;12.40;9.30;;;;;;;2.01;100.00;101455.09;5193974;28;20034;-76
2023/03/15 05:56:37;;;;;;;11.13;10.03;;;;;;;2.05;100.00;101461.94;5175378;28;20122;-75
2023/03/15 05:59:08;;;;;;;10.40;9.30;;;;;;;1.98;100.00;101457.72;5161890;28;20485;-75
2023/03/15 06:01:39;;;;;;;12.70;9.80;;;;;;;2.05;100.00;101473.16;5181027;28;20059;-76
2023/03/15 06:04:11;;;;;;;10.43;9.33;;;;;;;1.92;100.00;101464.69;5191553;28;20389;-76
2023/03/15 06:06:42;;;;;;;13.00;9.20;;;;;;;1.92;100.00;101472.44;5193995;28;20022;-76
2023/03/15 06:09:13;;;;;;;12.30;9.80;;;;;;;2.02;100.00;101493.00;5161699;28;20029;-76
2023/03/15 06:11:45;;;;;;;10.00;8.73;;;;;;;2.05;100.00;101498.13;5193766;28;20018;-76
2023/03/15 06:14:16;;;;;;;13.00;9.73;;;;;;;1.98;100.00;101492.19;5193430;28;20054;-76
2023/03/15 06:16:47;;;;;;;10.40;9.27;;;;;;;2.01;100.00;101491.28;5192838;28;20030;-76
2023/03/15 06:19:20;;;;;;;11.33;9.03;;;;;;;2.00;100.00;101499.91;5192945;28;20450;-76
2023/03/15 06:21:51;;;;;;;11.20;9.67;;;;;;;1.85;100.00;101483.72;5193291;28;20549;-76
2023/03/15 06:24:23;;;;;;;14.13;9.57;;;;;;;2.02;100.00;101508.50;5192849;28;20152;-76
2023/03/15 06:26:55;;;;;;;10.50;9.40;;;;;;;1.99;100.00;101519.72;5192854;28;20506;-76
2023/03/15 06:29:26;;;;;;;10.63;9.53;;;;;;;1.73;100.00;101489.06;5192679;28;20101;-76
2023/03/15 06:31:58;;;;;;;10.57;9.47;;;;;;;1.76;100.00;101502.78;5189951;28;20080;-76
2023/03/15 06:34:29;;;;;;;10.63;9.47;;;;;;;1.61;100.00;101493.50;5176025;28;20072;-76
2023/03/15 06:37:01;;;;;;;13.37;9.97;;;;;;;1.69;100.00;101496.84;5174965;28;20126;-76
2023/03/15 06:39:33;;;;;;;11.47;9.00;;;;;;;2.01;100.00;101540.38;5192634;28;20110;-76
2023/03/15 06:42:07;;;;;;;12.20;9.17;;;;;;;2.09;100.00;101551.50;5175258;28;20024;-76
2023/03/15 06:44:39;;;;;;;11.68;10.40;;;;;;;2.01;100.00;101540.38;5192814;28;20091;-76
2023/03/15 06:47:10;;;;;;;12.17;9.80;;;;;;;2.07;100.00;101554.94;5192107;28;20076;-75
2023/03/15 06:49:42;;;;;;;11.73;10.20;;;;;;;2.12;100.00;101561.78;5192977;28;20034;-76
2023/03/15 06:52:13;;;;;;;11.83;9.93;;;;;;;2.12;100.00;101561.78;5192385;28;20030;-76
2023/03/15 06:54:48;;;;;;;13.57;10.53;;;;;;;2.13;100.00;101558.31;5192095;28;20038;-76
2023/03/15 06:57:19;;;;;;;11.98;9.90;;;;;;;2.20;100.00;101571.16;5190424;28;20084;-76
2023/03/15 06:59:52;;;;;;;13.20;10.67;;;;;;;2.21;100.00;101580.63;5192408;28;20034;-76
2023/03/15 07:02:24;;;;;;;11.40;9.90;;;;;;;2.26;100.00;101578.84;5190423;28;20050;-74
2023/03/15 07:04:56;;;;;;;12.43;10.47;;;;;;;1.81;100.00;101511.34;5191845;28;20083;-76
2023/03/15 07:07:27;;;;;;;12.57;10.10;;;;;;;2.03;100.00;101549.81;5191547;28;20073;-76
2023/03/15 07:09:58;;;;;;;11.53;10.30;;;;;;;2.21;100.00;101580.63;5191660;28;20042;-76
2023/03/15 07:12:30;;;;;;;14.63;10.27;;;;;;;2.28;100.00;101592.59;5196686;28;20022;-76
2023/03/15 07:15:01;;;;;;;12.47;10.87;;;;;;;2.04;100.00;101563.63;5196399;28;20030;-76
2023/03/15 07:17:33;;;;;;;12.93;10.43;;;;;;;2.27;100.00;101594.31;5195817;28;20026;-76
2023/03/15 07:20:05;;;;;;;13.83;10.67;;;;;;;2.31;100.00;101600.31;5191675;28;20372;-76
2023/03/15 07:22:36;;;;;;;16.10;10.77;;;;;;;2.30;100.00;101601.19;5196413;28;20054;-75
2023/03/15 07:25:08;;;;;;;13.77;9.67;;;;;;;2.38;100.00;101603.66;5177958;28;20019;-75
2023/03/15 07:27:39;;;;;;;11.47;10.27;;;;;;;2.48;100.00;101620.75;5196706;28;20496;-76
2023/03/15 07:30:11;;;;;;;13.40;11.10;;;;;;;2.57;100.00;101624.97;5195859;28;20022;-76
2023/03/15 07:32:43;;;;;;;13.60;11.60;;;;;;;2.58;100.00;101625.81;5194861;28;20026;-76
2023/03/15 07:35:15;;;;;;;13.20;10.73;;;;;;;2.64;100.00;101631.78;5195596;28;20469;-76
2023/03/15 07:37:47;;;;;;;19.23;11.10;;;;;;;2.70;100.00;101635.16;5178949;28;20030;-75
2023/03/15 07:40:18;;;;;;;17.80;11.33;;;;;;;2.78;100.00;101639.34;5195130;28;20486;-75
2023/03/15 07:42:49;;;;;;;13.60;10.90;;;;;;;2.80;100.00;101635.88;5195918;28;20026;-74
2023/03/15 07:45:21;;;;;;;17.10;11.23;;;;;;;2.86;100.00;101641.78;5195230;28;20018;-75
2023/03/15 07:47:52;;;;;;;17.23;10.97;;;;;;;2.92;100.00;101645.19;5195878;28;20037;-75
2023/03/15 07:50:23;;;;;;;16.60;9.97;;;;;;;3.08;100.00;101662.19;5195275;28;20097;-75
2023/03/15 07:52:55;;;;;;;13.30;9.67;;;;;;;2.95;100.00;101616.69;5176539;28;20046;-75
2023/03/15 07:55:26;;;;;;;12.50;9.63;;;;;;;3.27;100.00;101661.91;5177768;28;20040;-76
2023/03/15 07:57:58;;;;;;;14.73;10.60;;;;;;;3.07;100.00;101638.94;5178256;28;20030;-76
2023/03/15 08:00:29;;;;;;;11.90;10.47;;;;;;;3.36;100.00;101661.78;5194763;28;20042;-76
2023/03/15 08:03:01;;;;;;;13.87;9.70;;;;;;;3.47;100.00;101663.34;5195585;28;20038;-75
2023/03/15 08:05:33;;;;;;;11.60;8.73;;;;;;;3.65;100.00;101676.84;5195524;28;20410;-76
2023/03/15 08:08:05;;;;;;;11.60;9.30;;;;;;;3.74;100.00;101682.72;5195623;28;20030;-76
2023/03/15 08:10:36;;;;;;;10.27;7.90;;;;;;;3.86;100.00;101681.66;5193290;28;20026;-77
2023/03/15 08:13:08;;;;;;;13.17;8.33;;;;;;;3.87;100.00;101675.56;5176442;28;20033;-76
2023/03/15 08:15:40;;;;;;;14.97;7.67;;;;;;;4.06;100.00;101683.03;5193795;28;20072;-77
2023/03/15 08:18:11;;;;;;;8.93;6.47;;;;;;;4.13;100.00;101696.72;5194493;28;20561;-77
2023/03/15 08:20:42;;;;;;;7.83;5.70;;;;;;;4.26;100.00;101699.09;5193991;28;20120;-77
2023/03/15 08:23:17;;;;;;;10.00;5.33;;;;;;;4.29;100.00;101691.25;5175485;28;20049;-77
2023/03/15 08:25:48;;;;;;;8.10;6.13;;;;;;;4.43;100.00;101701.34;5188123;28;20533;-77
2023/03/15 08:28:20;;;;;;;10.23;5.47;;;;;;;4.57;100.00;101703.66;5193519;28;20037;-77
2023/03/15 08:30:51;;;;;;;10.53;5.60;;;;;;;4.89;100.00;101722.00;5192877;28;20076;-77
2023/03/15 08:33:23;;;;;;;8.30;6.03;;;;;;;4.84;100.00;101697.03;5194193;28;20030;-76
2023/03/15 08:35:55;;;;;;;8.73;5.67;;;;;;;5.03;100.00;101706.13;5186400;28;20088;-77
2023/03/15 08:38:26;;;;;;;8.43;5.40;;;;;;;5.26;100.00;101729.00;5188263;28;20037;-78
2023/03/15 08:40:58;;;;;;;9.00;5.63;;;;;;;5.19;100.00;101706.66;5174045;28;20045;-76
2023/03/15 08:43:29;;;;;;;14.00;5.70;;;;;;;5.32;100.00;101728.84;5194803;28;20802;-76
2023/03/15 08:46:00;;;;;;;8.00;4.57;;;;;;;5.43;100.00;101718.19;5193806;28;20050;-77
2023/03/15 08:48:31;;;;;;;11.27;4.60;;;;;;;5.45;100.00;101732.00;5194440;28;20091;-77
2023/03/15 08:51:07;;;;;;;7.40;4.40;;;;;;;5.85;100.00;101742.31;5193044;28;20101;-77
2023/03/15 08:53:39;;;;;;;6.60;4.57;;;;;;;6.01;100.00;101740.19;5194196;28;20034;-76
2023/03/15 08:56:11;;;;;;;8.27;5.03;;;;;;;5.86;100.00;101718.03;5194552;28;20027;-76
2023/03/15 08:58:42;;;;;;;7.03;4.47;;;;;;;6.06;100.00;101745.28;5193547;28;20040;-77
2023/03/15 09:01:14;;;;;;;7.17;3.87;;;;;;;6.22;100.00;101730.13;5179739;28;20137;-77
2023/03/15 09:03:46;;;;;;;7.77;3.40;;;;;;;6.22;100.00;101717.13;5193604;28;20038;-77
2023/03/15 09:06:17;;;;;;;7.87;3.70;;;;;;;6.36;100.00;101721.94;5194300;28;20027;-77
2023/03/15 09:08:49;;;;;;;7.83;4.00;;;;;;;6.58;100.00;101731.72;5190157;28;20030;-76
2023/03/15 09:11:21;;;;;;;8.77;3.17;;;;;;;6.86;100.00;101748.31;5194089;28;20154;-77
2023/03/15 09:13:52;;;;;;;10.20;3.10;;;;;;;7.00;100.00;101738.31;5193855;28;20104;-77
2023/03/15 09:16:24;;;;;;;10.77;4.43;;;;;;;7.08;100.00;101717.28;5193059;28;20109;-77
2023/03/15 09:18:55;;;;;;;7.53;3.77;;;;;;;7.37;100.00;101753.72;5193058;28;20455;-77
2023/03/15 09:21:27;;;;;;;7.20;2.57;;;;;;;7.47;100.00;101744.69;5194123;28;20034;-76
2023/03/15 09:23:58;;;;;;;4.63;3.17;;;;;;;7.63;100.00;101752.03;5193385;28;20026;-76
2023/03/15 09:26:30;;;;;;;6.10;2.40;;;;;;;7.92;100.00;101751.97;5192658;28;20018;-76
2023/03/15 09:29:01;;;;;;;5.87;2.90;;;;;;;8.06;100.00;101744.53;5190824;28;20022;-76
2023/03/15 09:31:32;;;;;;;9.20;2.73;;;;;;;7.93;100.00;101746.69;5191702;28;20033;-75
2023/03/15 09:34:05;;;;;;;7.03;3.57;;;;;;;8.16;100.00;101758.09;5191645;28;20054;-76
2023/03/15 09:36:36;;;;;;;4.97;2.87;;;;;;;8.27;100.00;101746.44;5191932;28;20213;-76
2023/03/15 09:39:07;;;;;;;5.80;2.73;;;;;;;8.51;100.00;101755.13;5192505;28;20038;-76
2023/03/15 09:41:42;;;;;;;28.17;3.10;;;;;;;8.80;100.00;101747.13;5192461;28;20105;-76
2023/03/15 09:44:20;;;;;;;7.73;2.53;;;;;;;9.07;100.00;101752.25;5190831;28;20030;-76
2023/03/15 09:46:54;;;;;;;5.83;2.53;;;;;;;9.38;100.00;101758.88;5191337;28;20080;-76
2023/03/15 09:49:51;;;;;;;7.38;2.28;;;;;;;10.01;100.00;101758.94;5191841;28;20109;-77
2023/03/15 09:52:43;;;;;;;8.47;2.53;;;;;;;9.90;100.00;101754.16;5192136;28;20041;-76
2023/03/15 09:55:27;;;;;;;7.67;2.47;;;;;;;9.67;100.00;101763.81;5188635;28;20030;-76
2023/03/15 09:58:03;;;;;;;9.13;2.30;;;;;;;10.33;100.00;101759.31;5192495;28;20030;-76
2023/03/15 10:00:48;;;;;;;12.67;3.13;;;;;;;10.86;100.00;101751.72;5190366;28;20050;-76
2023/03/15 10:03:41;;;;;;;8.45;3.08;;;;;;;12.14;100.00;101751.72;5173921;28;20030;-76
2023/03/15 10:06:44;;;;;;;7.97;3.27;;;;;;;13.58;100.00;101747.44;5178641;28;20110;-76
2023/03/15 10:09:22;;;;;;;9.80;2.53;;;;;;;14.38;72.02;101745.41;5185169;28;20458;-76
2023/03/15 10:12:05;;;;;;;9.80;2.40;;;;;;;14.72;60.76;101747.72;5190622;28;20038;-77
2023/03/15 10:15:20;;;;;;;11.70;2.87;;;;;;;15.22;56.34;101750.69;5190760;28;20485;-76
2023/03/15 10:17:58;;;;;;;8.45;1.75;;;;;;;15.59;54.44;101754.50;5173192;28;20022;-77
2023/03/15 10:20:40;;;;;;;7.57;2.17;;;;;;;16.30;45.31;101750.66;5191363;28;20088;-76
2023/03/15 10:23:25;;;;;;;9.57;2.00;;;;;;;15.95;44.94;101745.03;5191666;28;20034;-75
2023/03/15 10:25:56;;;;;;;6.23;1.67;;;;;;;16.50;39.62;101759.81;5190593;28;20135;-76
2023/03/15 10:28:30;;;;;;;9.80;2.13;;;;;;;16.04;37.55;101750.69;5189972;28;20085;-76
2023/03/15 10:31:11;;;;;;;7.93;1.65;;;;;;;16.88;40.13;101759.81;5188085;28;20032;-76
2023/03/15 10:33:44;;;;;;;6.13;1.63;;;;;;;16.60;37.67;101752.06;5190387;28;20050;-76
2023/03/15 10:36:19;;;;;;;5.73;1.80;;;;;;;16.61;37.94;101763.50;5171565;28;20391;-77
2023/03/15 10:38:51;;;;;;;8.33;1.77;;;;;;;15.51;37.94;101767.38;5189909;28;20056;-76
2023/03/15 10:41:41;;;;;;;5.87;1.40;;;;;;;16.13;42.31;101771.16;5189608;28;20150;-77
2023/03/15 10:44:19;;;;;;;7.67;2.00;;;;;;;14.30;39.07;101768.72;5191072;28;20478;-76
2023/03/15 10:47:10;;;;;;;8.27;1.97;;;;;;;13.00;41.24;101774.34;5190150;28;20028;-76
2023/03/15 10:49:43;;;;;;;5.20;1.27;;;;;;;12.54;40.51;101768.03;5191068;28;20030;-76
2023/03/15 10:52:27;;;;;;;8.93;1.63;;;;;;;12.26;42.85;101774.72;5191401;28;20517;-76
2023/03/15 10:55:01;;;;;;;4.88;1.88;;;;;;;10.85;45.12;101776.25;5190803;28;20478;-76
2023/03/15 10:57:37;;;;;;;6.32;1.52;;;;;;;10.70;48.58;101790.88;5184965;28;20023;-75
2023/03/15 11:00:35;;;;;;;9.57;2.13;;;;;;;11.34;50.86;101795.84;5183404;28;20023;-77
2023/03/15 11:03:15;;;;;;;6.00;1.60;;;;;;;11.28;47.18;101784.75;5166356;28;20060;-77
2023/03/15 11:05:52;;;;;;;8.40;1.97;;;;;;;11.58;45.69;101800.81;5191191;28;20360;-77
2023/03/15 11:08:38;;;;;;;4.80;1.40;;;;;;;11.78;44.69;101785.00;5179592;28;20372;-76
2023/03/15 11:11:10;;;;;;;3.30;1.17;;;;;;;11.81;42.52;101793.59;5189919;28;20033;-76
2023/03/15 11:13:53;;;;;;;3.43;1.13;;;;;;;11.79;42.18;101800.69;5188049;28;20030;-76
2023/03/15 11:16:24;;;;;;;5.57;1.70;;;;;;;11.82;45.23;101808.41;5186777;28;20030;-76
2023/03/15 11:19:02;;;;;;;5.93;1.20;;;;;;;11.26;45.73;101803.19;5184916;28;20405;-77
2023/03/15 11:21:35;;;;;;;9.23;1.97;;;;;;;11.67;45.87;101809.16;5189693;28;20042;-75
2023/03/15 11:24:19;;;;;;;4.30;1.30;;;;;;;10.83;47.04;101792.94;5190587;28;20572;-76
2023/03/15 11:26:53;;;;;;;7.88;1.88;;;;;;;11.20;47.17;101798.25;5173808;28;20486;-74
2023/03/15 11:29:36;;;;;;;5.20;1.52;;;;;;;11.29;49.10;101821.44;5189869;28;20037;-74
2023/03/15 11:32:29;;;;;;;4.30;2.03;;;;;;;11.39;46.28;101819.22;5189918;28;20026;-74
2023/03/15 11:35:09;;;;;;;3.83;1.10;;;;;;;10.74;44.34;101820.41;5190596;28;20026;-75
2023/03/15 11:38:00;;;;;;;4.97;1.40;;;;;;;10.63;45.37;101808.66;5190596;28;20042;-75
2023/03/15 11:40:42;;;;;;;6.93;1.60;;;;;;;11.06;43.76;101807.63;5190910;28;20014;-74
2023/03/15 11:43:26;;;;;;;3.50;1.13;;;;;;;10.87;42.44;101800.59;5173060;28;20441;-74
2023/03/15 11:46:03;;;;;;;8.18;1.65;;;;;;;11.17;43.34;101807.09;5188841;28;20018;-75
2023/03/15 11:48:41;;;;;;;3.30;1.07;;;;;;;11.31;44.02;101816.13;5191284;28;20037;-75